Private Wetterstation Sandau
Wetterdaten: Dienstag, 22.05.2012
Datum Zeit Temp. A. Feuchte A. Luftdruck Regen Wind Richtung Richtung Taupunkt Windchill
22.05.2012 00:01 21,0 C 57 % 1005,0 hPa 0,0 l/m 10,4 km/h (2 Bft) SO 135 12,1 C 21,0 C
22.05.2012 00:06 21,1 C 57 % 1005,1 hPa 0,0 l/m 3,2 km/h (1 Bft) O-NO 67 12,2 C 21,1 C
22.05.2012 00:11 21,1 C 57 % 1005,1 hPa 0,0 l/m 2,2 km/h (1 Bft) O-NO 67 12,2 C 21,1 C
22.05.2012 00:16 20,9 C 57 % 1005,1 hPa 0,0 l/m 4,7 km/h (1 Bft) O-NO 67 12,1 C 20,9 C
22.05.2012 00:21 20,9 C 57 % 1005,1 hPa 0,0 l/m 0,0 km/h (0 Bft) O-NO 67 12,1 C 20,9 C
22.05.2012 00:26 20,8 C 57 % 1005,1 hPa 0,0 l/m 3,6 km/h (1 Bft) O-SO 112 12,0 C 20,8 C
22.05.2012 00:31 20,8 C 57 % 1005,1 hPa 0,0 l/m 13,7 km/h (3 Bft) SO 135 12,0 C 20,8 C
22.05.2012 00:36 20,9 C 57 % 1005,2 hPa 0,0 l/m 5,4 km/h (1 Bft) O-NO 67 12,1 C 20,9 C
22.05.2012 00:41 20,9 C 57 % 1005,2 hPa 0,0 l/m 4,0 km/h (1 Bft) O-NO 67 12,1 C 20,9 C
22.05.2012 00:46 20,9 C 57 % 1005,2 hPa 0,0 l/m 2,5 km/h (1 Bft) O-NO 67 12,1 C 20,9 C
22.05.2012 00:51 20,9 C 57 % 1005,2 hPa 0,0 l/m 6,1 km/h (2 Bft) O 90 12,1 C 20,9 C
22.05.2012 00:56 20,8 C 57 % 1005,3 hPa 0,0 l/m 4,3 km/h (1 Bft) O 90 12,0 C 20,8 C
22.05.2012 01:01 20,9 C 57 % 1005,2 hPa 0,0 l/m 9,0 km/h (2 Bft) O 90 12,1 C 20,9 C
22.05.2012 01:06 20,9 C 57 % 1005,2 hPa 0,0 l/m 4,3 km/h (1 Bft) O 90 12,1 C 20,9 C
22.05.2012 01:11 20,9 C 57 % 1005,3 hPa 0,0 l/m 5,8 km/h (2 Bft) O-NO 67 12,1 C 20,9 C
22.05.2012 01:16 20,8 C 57 % 1005,4 hPa 0,0 l/m 6,1 km/h (2 Bft) O-SO 112 12,0 C 20,8 C
22.05.2012 01:21 20,7 C 57 % 1005,3 hPa 0,0 l/m 4,7 km/h (1 Bft) O 90 11,9 C 20,7 C
22.05.2012 01:26 20,6 C 58 % 1005,4 hPa 0,0 l/m 7,6 km/h (2 Bft) O-NO 67 12,0 C 20,6 C
22.05.2012 01:31 20,4 C 59 % 1005,5 hPa 0,0 l/m 7,6 km/h (2 Bft) O-NO 67 12,1 C 20,4 C
22.05.2012 01:36 20,2 C 59 % 1005,4 hPa 0,0 l/m 4,3 km/h (1 Bft) O 90 11,9 C 20,2 C
22.05.2012 01:41 20,1 C 59 % 1005,5 hPa 0,0 l/m 7,6 km/h (2 Bft) O-NO 67 11,8 C 20,1 C
22.05.2012 01:46 20,1 C 59 % 1005,4 hPa 0,0 l/m 7,2 km/h (2 Bft) O-NO 67 11,8 C 20,1 C
22.05.2012 01:51 20,0 C 59 % 1005,6 hPa 0,0 l/m 4,3 km/h (1 Bft) NO 45 11,7 C 20,0 C
22.05.2012 01:56 19,9 C 60 % 1005,6 hPa 0,0 l/m 1,4 km/h (1 Bft) O-NO 67 11,9 C 19,9 C
22.05.2012 02:01 19,9 C 60 % 1005,6 hPa 0,0 l/m 3,6 km/h (1 Bft) O 90 11,9 C 19,9 C
22.05.2012 02:06 19,8 C 60 % 1005,6 hPa 0,0 l/m 4,3 km/h (1 Bft) NO 45 11,8 C 19,8 C
22.05.2012 02:11 19,6 C 61 % 1005,6 hPa 0,0 l/m 8,6 km/h (2 Bft) O-SO 112 11,9 C 19,6 C
22.05.2012 02:16 19,5 C 61 % 1005,8 hPa 0,0 l/m 10,1 km/h (2 Bft) O 90 11,8 C 19,5 C
22.05.2012 02:21 19,4 C 61 % 1005,8 hPa 0,0 l/m 5,0 km/h (1 Bft) O-NO 67 11,7 C 19,4 C
22.05.2012 02:26 19,3 C 62 % 1005,8 hPa 0,0 l/m 3,6 km/h (1 Bft) O 90 11,8 C 19,3 C
22.05.2012 02:31 19,2 C 62 % 1005,9 hPa 0,0 l/m 5,8 km/h (2 Bft) O 90 11,7 C 19,2 C
22.05.2012 02:36 19,2 C 62 % 1005,9 hPa 0,0 l/m 8,6 km/h (2 Bft) O 90 11,7 C 19,2 C
22.05.2012 02:41 19,1 C 63 % 1005,8 hPa 0,0 l/m 4,0 km/h (1 Bft) O-NO 67 11,9 C 19,1 C
22.05.2012 02:46 19,1 C 63 % 1005,8 hPa 0,0 l/m 8,6 km/h (2 Bft) O-SO 112 11,9 C 19,1 C
22.05.2012 02:51 19,0 C 63 % 1005,8 hPa 0,0 l/m 7,9 km/h (2 Bft) O-NO 67 11,8 C 19,0 C
22.05.2012 02:56 18,9 C 63 % 1005,9 hPa 0,0 l/m 8,3 km/h (2 Bft) NO 45 11,7 C 18,9 C
22.05.2012 03:01 18,9 C 64 % 1005,8 hPa 0,0 l/m 7,6 km/h (2 Bft) O 90 11,9 C 18,9 C
22.05.2012 03:06 18,9 C 64 % 1005,8 hPa 0,0 l/m 4,0 km/h (1 Bft) O-NO 67 11,9 C 18,9 C
22.05.2012 03:11 18,9 C 64 % 1005,9 hPa 0,0 l/m 6,1 km/h (2 Bft) O-NO 67 11,9 C 18,9 C
22.05.2012 03:16 18,9 C 65 % 1005,8 hPa 0,0 l/m 3,6 km/h (1 Bft) O 90 12,2 C 18,9 C
22.05.2012 03:21 18,8 C 65 % 1006,0 hPa 0,0 l/m 4,7 km/h (1 Bft) O 90 12,1 C 18,8 C
22.05.2012 03:26 18,8 C 65 % 1006,0 hPa 0,0 l/m 3,6 km/h (1 Bft) O 90 12,1 C 18,8 C
22.05.2012 03:31 18,7 C 65 % 1006,0 hPa 0,0 l/m 5,0 km/h (1 Bft) O-NO 67 12,0 C 18,7 C
22.05.2012 03:36 18,6 C 65 % 1006,1 hPa 0,0 l/m 2,5 km/h (1 Bft) O-SO 112 11,9 C 18,6 C
22.05.2012 03:41 18,6 C 66 % 1006,0 hPa 0,0 l/m 2,2 km/h (1 Bft) O 90 12,1 C 18,6 C
22.05.2012 03:46 18,5 C 66 % 1006,1 hPa 0,0 l/m 5,8 km/h (2 Bft) O 90 12,0 C 18,5 C
22.05.2012 03:51 18,5 C 66 % 1006,2 hPa 0,0 l/m 7,6 km/h (2 Bft) O 90 12,0 C 18,5 C
22.05.2012 03:56 18,5 C 66 % 1006,2 hPa 0,0 l/m 5,4 km/h (1 Bft) O 90 12,0 C 18,5 C
22.05.2012 04:01 18,5 C 66 % 1006,1 hPa 0,0 l/m 7,2 km/h (2 Bft) O-NO 67 12,0 C 18,5 C
22.05.2012 04:06 18,5 C 66 % 1006,1 hPa 0,0 l/m 9,0 km/h (2 Bft) O 90 12,0 C 18,5 C
22.05.2012 04:11 18,5 C 66 % 1006,2 hPa 0,0 l/m 6,5 km/h (2 Bft) O-SO 112 12,0 C 18,5 C
22.05.2012 04:16 18,4 C 66 % 1006,2 hPa 0,0 l/m 5,0 km/h (1 Bft) O-NO 67 11,9 C 18,4 C
22.05.2012 04:21 18,4 C 66 % 1006,2 hPa 0,0 l/m 3,6 km/h (1 Bft) O 90 11,9 C 18,4 C
22.05.2012 04:26 18,4 C 66 % 1006,2 hPa 0,0 l/m 7,6 km/h (2 Bft) O-SO 112 11,9 C 18,4 C
22.05.2012 04:31 18,4 C 66 % 1006,2 hPa 0,0 l/m 3,2 km/h (1 Bft) O 90 11,9 C 18,4 C
22.05.2012 04:36 18,3 C 66 % 1006,3 hPa 0,0 l/m 3,6 km/h (1 Bft) SO 135 11,8 C 18,3 C
22.05.2012 04:41 18,3 C 67 % 1006,3 hPa 0,0 l/m 7,2 km/h (2 Bft) O 90 12,1 C 18,3 C
22.05.2012 04:46 18,2 C 67 % 1006,3 hPa 0,0 l/m 6,5 km/h (2 Bft) O-NO 67 12,0 C 18,2 C
22.05.2012 04:51 18,1 C 67 % 1006,3 hPa 0,0 l/m 5,0 km/h (1 Bft) O 90 11,9 C 18,1 C
22.05.2012 04:56 18,1 C 67 % 1006,3 hPa 0,0 l/m 6,5 km/h (2 Bft) O-NO 67 11,9 C 18,1 C
22.05.2012 05:01 18,0 C 67 % 1006,3 hPa 0,0 l/m 7,2 km/h (2 Bft) O 90 11,8 C 18,0 C
22.05.2012 05:06 17,9 C 67 % 1006,3 hPa 0,0 l/m 5,4 km/h (1 Bft) O 90 11,7 C 17,9 C
22.05.2012 05:11 17,9 C 68 % 1006,4 hPa 0,0 l/m 4,0 km/h (1 Bft) SO 135 11,9 C 17,9 C
22.05.2012 05:16 17,9 C 68 % 1006,4 hPa 0,0 l/m 6,5 km/h (2 Bft) O-SO 112 11,9 C 17,9 C
22.05.2012 05:21 17,9 C 68 % 1006,5 hPa 0,0 l/m 6,1 km/h (2 Bft) O-SO 112 11,9 C 17,9 C
22.05.2012 05:26 17,8 C 68 % 1006,5 hPa 0,0 l/m 2,9 km/h (1 Bft) O-SO 112 11,8 C 17,8 C
22.05.2012 05:31 17,8 C 68 % 1006,6 hPa 0,0 l/m 6,5 km/h (2 Bft) O-NO 67 11,8 C 17,8 C
22.05.2012 05:36 17,8 C 68 % 1006,6 hPa 0,0 l/m 3,2 km/h (1 Bft) O 90 11,8 C 17,8 C
22.05.2012 05:41 17,7 C 68 % 1006,6 hPa 0,0 l/m 4,0 km/h (1 Bft) O-SO 112 11,7 C 17,7 C
22.05.2012 05:46 17,7 C 68 % 1006,6 hPa 0,0 l/m 7,9 km/h (2 Bft) O-NO 67 11,7 C 17,7 C
22.05.2012 05:51 17,7 C 69 % 1006,6 hPa 0,0 l/m 5,4 km/h (1 Bft) O-NO 67 11,9 C 17,7 C
22.05.2012 05:56 17,6 C 69 % 1006,6 hPa 0,0 l/m 8,3 km/h (2 Bft) O 90 11,8 C 17,6 C
22.05.2012 06:01 17,6 C 69 % 1006,9 hPa 0,0 l/m 5,0 km/h (1 Bft) O-NO 67 11,8 C 17,6 C
22.05.2012 06:06 17,8 C 69 % 1006,9 hPa 0,0 l/m 5,0 km/h (1 Bft) O 90 12,0 C 17,8 C
22.05.2012 06:11 17,9 C 69 % 1006,9 hPa 0,0 l/m 4,7 km/h (1 Bft) SO 135 12,1 C 17,9 C
22.05.2012 06:16 17,9 C 69 % 1007,0 hPa 0,0 l/m 4,0 km/h (1 Bft) O 90 12,1 C 17,9 C
22.05.2012 06:21 17,9 C 69 % 1007,0 hPa 0,0 l/m 0,0 km/h (0 Bft) O 90 12,1 C 17,9 C
22.05.2012 06:26 18,1 C 69 % 1007,0 hPa 0,0 l/m 3,2 km/h (1 Bft) O-NO 67 12,3 C 18,1 C
22.05.2012 06:31 18,3 C 68 % 1007,0 hPa 0,0 l/m 0,0 km/h (0 Bft) O-NO 67 12,3 C 18,3 C
22.05.2012 06:36 18,5 C 68 % 1007,1 hPa 0,0 l/m 0,0 km/h (0 Bft) O 90 12,5 C 18,5 C
22.05.2012 06:41 18,8 C 67 % 1007,1 hPa 0,0 l/m 3,2 km/h (1 Bft) O-NO 67 12,5 C 18,8 C
22.05.2012 06:46 18,8 C 67 % 1007,3 hPa 0,0 l/m 4,0 km/h (1 Bft) O-NO 67 12,5 C 18,8 C
22.05.2012 06:51 18,8 C 67 % 1007,3 hPa 0,0 l/m 0,0 km/h (0 Bft) O-SO 112 12,5 C 18,8 C
22.05.2012 06:56 18,9 C 67 % 1007,3 hPa 0,0 l/m 2,5 km/h (1 Bft) O 90 12,6 C 18,9 C
22.05.2012 07:01 19,1 C 67 % 1007,3 hPa 0,0 l/m 2,9 km/h (1 Bft) O-SO 112 12,8 C 19,1 C
22.05.2012 07:06 19,2 C 67 % 1007,3 hPa 0,0 l/m 3,2 km/h (1 Bft) O-SO 112 12,9 C 19,2 C
22.05.2012 07:11 19,4 C 66 % 1007,3 hPa 0,0 l/m 3,6 km/h (1 Bft) O-SO 112 12,9 C 19,4 C
22.05.2012 07:16 19,5 C 66 % 1007,4 hPa 0,0 l/m 3,6 km/h (1 Bft) O-SO 112 13,0 C 19,5 C
22.05.2012 07:21 19,5 C 66 % 1007,5 hPa 0,0 l/m 4,3 km/h (1 Bft) O-SO 112 13,0 C 19,5 C
22.05.2012 07:26 19,6 C 66 % 1007,5 hPa 0,0 l/m 4,3 km/h (1 Bft) SO 135 13,1 C 19,6 C
22.05.2012 07:31 19,7 C 65 % 1007,5 hPa 0,0 l/m 5,4 km/h (1 Bft) O 90 12,9 C 19,7 C
22.05.2012 07:36 19,8 C 65 % 1007,7 hPa 0,0 l/m 2,5 km/h (1 Bft) O-SO 112 13,0 C 19,8 C
22.05.2012 07:41 19,9 C 65 % 1007,7 hPa 0,0 l/m 2,9 km/h (1 Bft) O-SO 112 13,1 C 19,9 C
22.05.2012 07:46 20,1 C 65 % 1007,7 hPa 0,0 l/m 4,7 km/h (1 Bft) O 90 13,3 C 20,1 C
22.05.2012 07:51 20,3 C 64 % 1007,8 hPa 0,0 l/m 1,8 km/h (1 Bft) O-SO 112 13,3 C 20,3 C
22.05.2012 07:56 20,3 C 64 % 1007,7 hPa 0,0 l/m 5,0 km/h (1 Bft) O 90 13,3 C 20,3 C
22.05.2012 08:01 20,3 C 64 % 1007,9 hPa 0,0 l/m 4,7 km/h (1 Bft) O-NO 67 13,3 C 20,3 C
22.05.2012 08:06 20,4 C 65 % 1007,9 hPa 0,0 l/m 3,6 km/h (1 Bft) O-NO 67 13,6 C 20,4 C
22.05.2012 08:11 20,5 C 65 % 1008,0 hPa 0,0 l/m 2,5 km/h (1 Bft) SO 135 13,7 C 20,5 C
22.05.2012 08:16 20,5 C 65 % 1008,1 hPa 0,0 l/m 4,7 km/h (1 Bft) O 90 13,7 C 20,5 C
22.05.2012 08:21 20,8 C 64 % 1008,1 hPa 0,0 l/m 4,0 km/h (1 Bft) O-NO 67 13,7 C 20,8 C
22.05.2012 08:26 21,0 C 64 % 1008,2 hPa 0,0 l/m 7,2 km/h (2 Bft) O 90 13,9 C 21,0 C
22.05.2012 08:31 21,3 C 63 % 1008,1 hPa 0,0 l/m 2,9 km/h (1 Bft) O-NO 67 14,0 C 21,3 C
22.05.2012 08:36 21,6 C 62 % 1008,3 hPa 0,0 l/m 3,6 km/h (1 Bft) O-SO 112 14,0 C 21,6 C
22.05.2012 08:41 21,9 C 61 % 1008,3 hPa 0,0 l/m 3,6 km/h (1 Bft) O 90 14,0 C 21,9 C
22.05.2012 08:46 22,1 C 60 % 1008,4 hPa 0,0 l/m 5,4 km/h (1 Bft) O-SO 112 14,0 C 22,1 C
22.05.2012 08:51 22,3 C 61 % 1008,3 hPa 0,0 l/m 1,8 km/h (1 Bft) O-SO 112 14,4 C 22,3 C
22.05.2012 08:56 22,4 C 60 % 1008,5 hPa 0,0 l/m 4,0 km/h (1 Bft) O-SO 112 14,2 C 22,4 C
22.05.2012 09:01 22,5 C 60 % 1008,6 hPa 0,0 l/m 1,4 km/h (1 Bft) O-SO 112 14,3 C 22,5 C
22.05.2012 09:06 22,7 C 60 % 1008,6 hPa 0,0 l/m 2,9 km/h (1 Bft) O-NO 67 14,5 C 22,7 C
22.05.2012 09:11 22,9 C 60 % 1008,6 hPa 0,0 l/m 6,1 km/h (2 Bft) O-SO 112 14,7 C 22,9 C
22.05.2012 09:16 23,1 C 59 % 1008,7 hPa 0,0 l/m 6,5 km/h (2 Bft) O-NO 67 14,6 C 23,1 C
22.05.2012 09:21 23,3 C 59 % 1008,7 hPa 0,0 l/m 4,0 km/h (1 Bft) O 90 14,8 C 23,3 C
22.05.2012 09:26 23,5 C 58 % 1008,8 hPa 0,0 l/m 10,4 km/h (2 Bft) O 90 14,7 C 23,5 C
22.05.2012 09:31 23,8 C 56 % 1008,8 hPa 0,0 l/m 5,0 km/h (1 Bft) O 90 14,5 C 23,8 C
22.05.2012 09:36 23,9 C 56 % 1008,8 hPa 0,0 l/m 3,6 km/h (1 Bft) SO 135 14,6 C 23,9 C
22.05.2012 09:41 24,2 C 55 % 1008,8 hPa 0,0 l/m 9,7 km/h (2 Bft) O 90 14,6 C 24,2 C
22.05.2012 09:46 24,4 C 55 % 1008,9 hPa 0,0 l/m 8,3 km/h (2 Bft) O 90 14,8 C 24,4 C
22.05.2012 09:51 24,6 C 54 % 1008,9 hPa 0,0 l/m 11,9 km/h (2 Bft) O-SO 112 14,7 C 24,6 C
22.05.2012 09:56 24,6 C 53 % 1008,9 hPa 0,0 l/m 9,7 km/h (2 Bft) N-NO 22 14,4 C 24,6 C
22.05.2012 10:01 24,9 C 53 % 1008,8 hPa 0,0 l/m 9,4 km/h (2 Bft) O-SO 112 14,6 C 24,9 C
22.05.2012 10:06 25,1 C 52 % 1008,8 hPa 0,0 l/m 3,6 km/h (1 Bft) O-NO 67 14,5 C 25,1 C
22.05.2012 10:11 25,3 C 52 % 1008,8 hPa 0,0 l/m 8,6 km/h (2 Bft) O-SO 112 14,7 C 25,3 C
22.05.2012 10:16 25,4 C 51 % 1008,8 hPa 0,0 l/m 10,4 km/h (2 Bft) O 90 14,5 C 25,4 C
22.05.2012 10:21 25,6 C 51 % 1008,9 hPa 0,0 l/m 7,9 km/h (2 Bft) O 90 14,7 C 25,6 C
22.05.2012 10:26 25,8 C 51 % 1008,8 hPa 0,0 l/m 4,0 km/h (1 Bft) O-SO 112 14,9 C 25,8 C
22.05.2012 10:31 25,9 C 51 % 1008,9 hPa 0,0 l/m 6,5 km/h (2 Bft) O 90 15,0 C 25,9 C
22.05.2012 10:36 26,1 C 49 % 1008,8 hPa 0,0 l/m 8,6 km/h (2 Bft) SO 135 14,5 C 26,1 C
22.05.2012 10:41 26,3 C 49 % 1008,8 hPa 0,0 l/m 2,9 km/h (1 Bft) O-NO 67 14,7 C 26,3 C
22.05.2012 10:46 26,4 C 48 % 1008,8 hPa 0,0 l/m 11,2 km/h (2 Bft) O 90 14,5 C 26,4 C
22.05.2012 10:51 26,6 C 47 % 1008,8 hPa 0,0 l/m 6,1 km/h (2 Bft) SO 135 14,3 C 26,6 C
22.05.2012 10:56 26,8 C 46 % 1009,0 hPa 0,0 l/m 5,0 km/h (1 Bft) O-SO 112 14,2 C 26,8 C
22.05.2012 11:01 26,9 C 46 % 1009,0 hPa 0,0 l/m 5,8 km/h (2 Bft) O-NO 67 14,3 C 26,9 C
22.05.2012 11:06 27,0 C 46 % 1008,9 hPa 0,0 l/m 8,3 km/h (2 Bft) O-SO 112 14,4 C 27,0 C
22.05.2012 11:11 27,1 C 46 % 1008,9 hPa 0,0 l/m 5,8 km/h (2 Bft) O 90 14,5 C 27,1 C
22.05.2012 11:16 27,3 C 46 % 1009,1 hPa 0,0 l/m 9,4 km/h (2 Bft) O-SO 112 14,6 C 27,3 C
22.05.2012 11:21 27,3 C 45 % 1009,1 hPa 0,0 l/m 16,6 km/h (3 Bft) O 90 14,3 C 27,3 C
22.05.2012 11:26 27,4 C 45 % 1009,1 hPa 0,0 l/m 7,2 km/h (2 Bft) O 90 14,4 C 27,4 C
22.05.2012 11:31 27,5 C 45 % 1009,1 hPa 0,0 l/m 0,0 km/h (0 Bft) O 90 14,5 C 27,5 C
22.05.2012 11:36 27,6 C 44 % 1009,2 hPa 0,0 l/m 11,9 km/h (2 Bft) O 90 14,2 C 27,6 C
22.05.2012 11:41 27,8 C 43 % 1009,1 hPa 0,0 l/m 7,2 km/h (2 Bft) O 90 14,1 C 27,8 C
22.05.2012 11:46 27,8 C 42 % 1009,2 hPa 0,0 l/m 5,4 km/h (1 Bft) O-NO 67 13,7 C 27,8 C
22.05.2012 11:51 27,8 C 42 % 1009,2 hPa 0,0 l/m 5,8 km/h (2 Bft) O-SO 112 13,7 C 27,8 C
22.05.2012 11:56 27,8 C 41 % 1009,2 hPa 0,0 l/m 21,2 km/h (4 Bft) SO 135 13,3 C 27,8 C
22.05.2012 12:01 28,0 C 41 % 1009,2 hPa 0,0 l/m 19,1 km/h (3 Bft) O 90 13,5 C 28,0 C
22.05.2012 12:06 28,1 C 40 % 1009,3 hPa 0,0 l/m 11,2 km/h (2 Bft) O-SO 112 13,2 C 28,1 C
22.05.2012 12:11 28,2 C 41 % 1009,3 hPa 0,0 l/m 14,8 km/h (3 Bft) O 90 13,7 C 28,2 C
22.05.2012 12:16 28,4 C 40 % 1009,4 hPa 0,0 l/m 8,6 km/h (2 Bft) O 90 13,5 C 28,4 C
22.05.2012 12:21 28,4 C 41 % 1009,4 hPa 0,0 l/m 4,3 km/h (1 Bft) SO 135 13,9 C 28,4 C
22.05.2012 12:26 28,6 C 42 % 1009,3 hPa 0,0 l/m 8,6 km/h (2 Bft) O-SO 112 14,4 C 28,6 C
22.05.2012 12:31 28,7 C 41 % 1009,2 hPa 0,0 l/m 10,4 km/h (2 Bft) S-SO 157 14,1 C 28,7 C
22.05.2012 12:36 28,9 C 40 % 1009,2 hPa 0,0 l/m 4,7 km/h (1 Bft) O-SO 112 13,9 C 28,9 C
22.05.2012 12:41 28,9 C 39 % 1009,3 hPa 0,0 l/m 12,2 km/h (2 Bft) O-NO 67 13,5 C 28,9 C
22.05.2012 12:46 29,0 C 39 % 1009,2 hPa 0,0 l/m 10,4 km/h (2 Bft) SO 135 13,6 C 29,0 C
22.05.2012 12:51 29,1 C 39 % 1009,3 hPa 0,0 l/m 10,1 km/h (2 Bft) O 90 13,7 C 29,1 C
22.05.2012 12:56 29,2 C 38 % 1009,3 hPa 0,0 l/m 5,4 km/h (1 Bft) O-NO 67 13,4 C 29,2 C
22.05.2012 13:01 29,3 C 38 % 1009,3 hPa 0,0 l/m 9,4 km/h (2 Bft) O-SO 112 13,5 C 29,3 C
22.05.2012 13:06 29,5 C 38 % 1009,4 hPa 0,0 l/m 7,2 km/h (2 Bft) NO 45 13,7 C 29,5 C
22.05.2012 13:11 29,6 C 37 % 1009,3 hPa 0,0 l/m 8,6 km/h (2 Bft) N-NO 22 13,3 C 29,6 C
22.05.2012 13:16 29,6 C 37 % 1009,2 hPa 0,0 l/m 9,0 km/h (2 Bft) O-SO 112 13,3 C 29,6 C
22.05.2012 13:21 29,6 C 37 % 1009,5 hPa 0,0 l/m 12,2 km/h (2 Bft) O-SO 112 13,3 C 29,6 C
22.05.2012 13:26 29,4 C 35 % 1009,6 hPa 0,0 l/m 4,0 km/h (1 Bft) NO 45 12,3 C 29,4 C
22.05.2012 13:31 29,3 C 36 % 1009,6 hPa 0,0 l/m 11,5 km/h (2 Bft) O 90 12,7 C 29,3 C
22.05.2012 13:36 29,4 C 36 % 1009,6 hPa 0,0 l/m 20,5 km/h (4 Bft) O-SO 112 12,7 C 29,4 C
22.05.2012 13:41 29,5 C 36 % 1009,6 hPa 0,0 l/m 9,4 km/h (2 Bft) O 90 12,8 C 29,5 C
22.05.2012 13:46 29,6 C 35 % 1009,6 hPa 0,0 l/m 10,1 km/h (2 Bft) O-SO 112 12,5 C 29,6 C
22.05.2012 13:51 29,9 C 36 % 1009,5 hPa 0,0 l/m 8,6 km/h (2 Bft) SO 135 13,2 C 29,9 C
22.05.2012 13:56 30,1 C 36 % 1009,5 hPa 0,0 l/m 7,2 km/h (2 Bft) O-NO 67 13,4 C 30,1 C
22.05.2012 14:01 30,3 C 35 % 1009,6 hPa 0,0 l/m 6,8 km/h (2 Bft) O 90 13,1 C 30,3 C
22.05.2012 14:06 30,3 C 35 % 1009,6 hPa 0,0 l/m 6,5 km/h (2 Bft) O-NO 67 13,1 C 30,3 C
22.05.2012 14:11 30,3 C 35 % 1009,5 hPa 0,0 l/m 9,7 km/h (2 Bft) O 90 13,1 C 30,3 C
22.05.2012 14:16 30,1 C 35 % 1009,6 hPa 0,0 l/m 8,6 km/h (2 Bft) SO 135 12,9 C 30,1 C
22.05.2012 14:21 30,4 C 35 % 1009,7 hPa 0,0 l/m 11,5 km/h (2 Bft) O 90 13,2 C 30,4 C
22.05.2012 14:26 30,8 C 34 % 1009,7 hPa 0,0 l/m 8,3 km/h (2 Bft) O-NO 67 13,1 C 30,8 C
22.05.2012 14:31 30,7 C 34 % 1009,6 hPa 0,0 l/m 6,5 km/h (2 Bft) O-NO 67 13,0 C 30,7 C
22.05.2012 14:36 30,8 C 34 % 1009,5 hPa 0,0 l/m 8,6 km/h (2 Bft) O 90 13,1 C 30,8 C
22.05.2012 14:41 30,8 C 33 % 1009,6 hPa 0,0 l/m 7,6 km/h (2 Bft) O 90 12,6 C 30,8 C
22.05.2012 14:46 30,4 C 34 % 1009,5 hPa 0,0 l/m 14,4 km/h (3 Bft) O 90 12,7 C 30,4 C
22.05.2012 14:51 30,1 C 35 % 1009,7 hPa 0,0 l/m 3,6 km/h (1 Bft) O-SO 112 12,9 C 30,1 C
22.05.2012 14:56 30,0 C 36 % 1009,6 hPa 0,0 l/m 14,0 km/h (3 Bft) O-NO 67 13,3 C 30,0 C
22.05.2012 15:01 29,9 C 35 % 1009,7 hPa 0,0 l/m 11,5 km/h (2 Bft) O 90 12,8 C 29,9 C
22.05.2012 15:06 29,8 C 36 % 1009,7 hPa 0,0 l/m 7,9 km/h (2 Bft) NO 45 13,1 C 29,8 C
22.05.2012 15:11 29,6 C 37 % 1009,7 hPa 0,0 l/m 5,4 km/h (1 Bft) O-NO 67 13,3 C 29,6 C
22.05.2012 15:16 29,4 C 38 % 1009,8 hPa 0,0 l/m 4,0 km/h (1 Bft) NO 45 13,6 C 29,4 C
22.05.2012 15:21 29,2 C 38 % 1009,9 hPa 0,0 l/m 9,0 km/h (2 Bft) O 90 13,4 C 29,2 C
22.05.2012 15:26 28,9 C 38 % 1009,9 hPa 0,0 l/m 2,5 km/h (1 Bft) SO 135 13,1 C 28,9 C
22.05.2012 15:31 28,7 C 39 % 1010,0 hPa 0,0 l/m 2,5 km/h (1 Bft) O-NO 67 13,4 C 28,7 C
22.05.2012 15:36 28,5 C 39 % 1009,9 hPa 0,0 l/m 5,0 km/h (1 Bft) O-SO 112 13,2 C 28,5 C
22.05.2012 15:41 28,5 C 40 % 1009,9 hPa 0,0 l/m 1,4 km/h (1 Bft) O-SO 112 13,6 C 28,5 C
22.05.2012 15:46 28,4 C 40 % 1010,1 hPa 0,0 l/m 3,6 km/h (1 Bft) O-NO 67 13,5 C 28,4 C
22.05.2012 15:51 28,5 C 40 % 1010,2 hPa 0,0 l/m 0,0 km/h (0 Bft) O-NO 67 13,6 C 28,5 C
22.05.2012 15:56 28,5 C 39 % 1010,0 hPa 0,0 l/m 5,4 km/h (1 Bft) NO 45 13,2 C 28,5 C
22.05.2012 16:01 28,5 C 40 % 1010,1 hPa 0,0 l/m 4,7 km/h (1 Bft) NO 45 13,6 C 28,5 C
22.05.2012 16:06 28,6 C 39 % 1010,2 hPa 0,0 l/m 2,9 km/h (1 Bft) O-NO 67 13,3 C 28,6 C
22.05.2012 16:11 28,8 C 39 % 1010,2 hPa 0,0 l/m 2,5 km/h (1 Bft) O 90 13,4 C 28,8 C
22.05.2012 16:16 29,0 C 38 % 1010,3 hPa 0,0 l/m 5,0 km/h (1 Bft) N-NO 22 13,2 C 29,0 C
22.05.2012 16:21 29,5 C 37 % 1010,1 hPa 0,0 l/m 2,9 km/h (1 Bft) O 90 13,3 C 29,5 C
22.05.2012 16:26 29,9 C 36 % 1010,2 hPa 0,0 l/m 2,5 km/h (1 Bft) O-SO 112 13,2 C 29,9 C
22.05.2012 16:31 30,3 C 35 % 1010,2 hPa 0,0 l/m 0,0 km/h (0 Bft) N-NO 22 13,1 C 30,3 C
22.05.2012 16:36 30,5 C 34 % 1010,2 hPa 0,0 l/m 4,7 km/h (1 Bft) O 90 12,8 C 30,5 C
22.05.2012 16:41 30,6 C 34 % 1010,3 hPa 0,0 l/m 2,5 km/h (1 Bft) O-SO 112 12,9 C 30,6 C
22.05.2012 16:46 30,8 C 34 % 1010,2 hPa 0,0 l/m 2,5 km/h (1 Bft) SO 135 13,1 C 30,8 C
22.05.2012 16:51 30,9 C 35 % 1010,2 hPa 0,0 l/m 0,0 km/h (0 Bft) S 180 13,6 C 30,9 C
22.05.2012 16:56 31,3 C 33 % 1010,2 hPa 0,0 l/m 2,2 km/h (1 Bft) O-NO 67 13,1 C 31,3 C
22.05.2012 17:01 31,3 C 33 % 1010,2 hPa 0,0 l/m 2,5 km/h (1 Bft) O-NO 67 13,1 C 31,3 C
22.05.2012 17:06 31,2 C 33 % 1010,2 hPa 0,0 l/m 5,0 km/h (1 Bft) O 90 13,0 C 31,2 C
22.05.2012 17:11 31,1 C 33 % 1010,1 hPa 0,0 l/m 2,5 km/h (1 Bft) SO 135 12,9 C 31,1 C
22.05.2012 17:16 31,1 C 33 % 1010,3 hPa 0,0 l/m 3,6 km/h (1 Bft) O-NO 67 12,9 C 31,1 C
22.05.2012 17:21 31,1 C 34 % 1010,2 hPa 0,0 l/m 0,0 km/h (0 Bft) O-SO 112 13,4 C 31,1 C
22.05.2012 17:26 31,2 C 33 % 1010,2 hPa 0,0 l/m 8,6 km/h (2 Bft) O-NO 67 13,0 C 31,2 C
22.05.2012 17:31 31,3 C 33 % 1010,2 hPa 0,0 l/m 6,1 km/h (2 Bft) O-NO 67 13,1 C 31,3 C
22.05.2012 17:36 31,2 C 33 % 1010,2 hPa 0,0 l/m 8,6 km/h (2 Bft) SO 135 13,0 C 31,2 C
22.05.2012 17:41 31,1 C 33 % 1010,3 hPa 0,0 l/m 9,4 km/h (2 Bft) O-NO 67 12,9 C 31,1 C
22.05.2012 17:46 30,9 C 34 % 1010,3 hPa 0,0 l/m 10,8 km/h (2 Bft) O 90 13,2 C 30,9 C
22.05.2012 17:51 30,8 C 34 % 1010,3 hPa 0,0 l/m 5,4 km/h (1 Bft) SO 135 13,1 C 30,8 C
22.05.2012 17:56 30,4 C 34 % 1010,3 hPa 0,0 l/m 3,2 km/h (1 Bft) O 90 12,7 C 30,4 C
22.05.2012 18:01 30,2 C 35 % 1010,6 hPa 0,0 l/m 0,0 km/h (0 Bft) O-NO 67 13,0 C 30,2 C
22.05.2012 18:06 29,9 C 38 % 1010,6 hPa 0,0 l/m 9,0 km/h (2 Bft) SO 135 14,0 C 29,9 C
22.05.2012 18:11 28,9 C 40 % 1010,6 hPa 0,0 l/m 5,0 km/h (1 Bft) N-NO 22 13,9 C 28,9 C
22.05.2012 18:16 28,3 C 43 % 1010,7 hPa 0,0 l/m 14,4 km/h (3 Bft) NO 45 14,5 C 28,3 C
22.05.2012 18:21 27,6 C 44 % 1010,9 hPa 0,0 l/m 12,6 km/h (3 Bft) O-NO 67 14,2 C 27,6 C
22.05.2012 18:26 27,2 C 45 % 1010,9 hPa 0,0 l/m 16,9 km/h (3 Bft) N 360 14,2 C 27,2 C
22.05.2012 18:31 26,9 C 46 % 1011,1 hPa 0,0 l/m 11,2 km/h (2 Bft) N 360 14,3 C 26,9 C
22.05.2012 18:36 26,6 C 47 % 1011,2 hPa 0,0 l/m 5,4 km/h (1 Bft) O-NO 67 14,3 C 26,6 C
22.05.2012 18:41 26,5 C 48 % 1011,1 hPa 0,0 l/m 3,6 km/h (1 Bft) N-NO 22 14,6 C 26,5 C
22.05.2012 18:46 26,3 C 49 % 1011,1 hPa 0,0 l/m 7,6 km/h (2 Bft) NO 45 14,7 C 26,3 C
22.05.2012 18:51 26,3 C 49 % 1011,0 hPa 0,0 l/m 9,7 km/h (2 Bft) NO 45 14,7 C 26,3 C
22.05.2012 18:56 26,2 C 48 % 1011,1 hPa 0,0 l/m 6,1 km/h (2 Bft) N 360 14,3 C 26,2 C
22.05.2012 19:01 26,2 C 47 % 1011,1 hPa 0,0 l/m 3,2 km/h (1 Bft) NO 45 14,0 C 26,2 C
22.05.2012 19:06 26,3 C 47 % 1011,1 hPa 0,0 l/m 3,6 km/h (1 Bft) O-NO 67 14,1 C 26,3 C
22.05.2012 19:11 26,3 C 46 % 1011,3 hPa 0,0 l/m 7,6 km/h (2 Bft) N-NO 22 13,7 C 26,3 C
22.05.2012 19:16 26,3 C 46 % 1011,3 hPa 0,0 l/m 11,2 km/h (2 Bft) N-NO 22 13,7 C 26,3 C
22.05.2012 19:21 26,3 C 44 % 1011,4 hPa 0,0 l/m 8,3 km/h (2 Bft) N-NO 22 13,1 C 26,3 C
22.05.2012 19:26 26,2 C 44 % 1011,5 hPa 0,0 l/m 4,0 km/h (1 Bft) N 360 13,0 C 26,2 C
22.05.2012 19:31 26,1 C 44 % 1011,5 hPa 0,0 l/m 3,6 km/h (1 Bft) N-NO 22 12,9 C 26,1 C
22.05.2012 19:36 25,9 C 44 % 1011,6 hPa 0,0 l/m 4,0 km/h (1 Bft) N 360 12,7 C 25,9 C
22.05.2012 19:41 25,8 C 45 % 1011,7 hPa 0,0 l/m 3,6 km/h (1 Bft) NO 45 13,0 C 25,8 C
22.05.2012 19:46 25,6 C 46 % 1011,7 hPa 0,0 l/m 6,1 km/h (2 Bft) O-NO 67 13,1 C 25,6 C
22.05.2012 19:51 25,6 C 48 % 1011,9 hPa 0,0 l/m 4,7 km/h (1 Bft) NO 45 13,8 C 25,6 C
22.05.2012 19:56 25,5 C 50 % 1011,9 hPa 0,0 l/m 4,0 km/h (1 Bft) O-NO 67 14,3 C 25,5 C
22.05.2012 20:01 25,5 C 50 % 1011,9 hPa 0,0 l/m 6,5 km/h (2 Bft) NO 45 14,3 C 25,5 C
22.05.2012 20:06 25,4 C 51 % 1011,7 hPa 0,0 l/m 7,2 km/h (2 Bft) N-NO 22 14,5 C 25,4 C
22.05.2012 20:11 25,4 C 52 % 1011,7 hPa 0,0 l/m 4,7 km/h (1 Bft) O-NO 67 14,8 C 25,4 C
22.05.2012 20:16 25,3 C 52 % 1011,9 hPa 0,0 l/m 7,2 km/h (2 Bft) N 360 14,7 C 25,3 C
22.05.2012 20:21 25,2 C 53 % 1011,8 hPa 0,0 l/m 9,4 km/h (2 Bft) O-NO 67 14,9 C 25,2 C
22.05.2012 20:26 25,1 C 54 % 1012,1 hPa 0,0 l/m 7,2 km/h (2 Bft) N-NO 22 15,1 C 25,1 C
22.05.2012 20:31 25,1 C 55 % 1012,0 hPa 0,0 l/m 2,9 km/h (1 Bft) NO 45 15,4 C 25,1 C
22.05.2012 20:36 24,9 C 55 % 1012,1 hPa 0,0 l/m 5,8 km/h (2 Bft) NO 45 15,2 C 24,9 C
22.05.2012 20:41 24,9 C 56 % 1012,2 hPa 0,0 l/m 3,6 km/h (1 Bft) O-NO 67 15,5 C 24,9 C
22.05.2012 20:46 24,8 C 57 % 1012,3 hPa 0,0 l/m 5,8 km/h (2 Bft) NO 45 15,7 C 24,8 C
22.05.2012 20:51 24,8 C 57 % 1012,4 hPa 0,0 l/m 4,0 km/h (1 Bft) NO 45 15,7 C 24,8 C
22.05.2012 20:56 24,6 C 58 % 1012,5 hPa 0,0 l/m 7,9 km/h (2 Bft) NO 45 15,8 C 24,6 C
22.05.2012 21:01 24,6 C 58 % 1012,5 hPa 0,0 l/m 0,0 km/h (0 Bft) O-NO 67 15,8 C 24,6 C
22.05.2012 21:06 24,6 C 59 % 1012,7 hPa 0,0 l/m 4,3 km/h (1 Bft) NO 45 16,0 C 24,6 C
22.05.2012 21:11 24,5 C 59 % 1012,7 hPa 0,0 l/m 2,2 km/h (1 Bft) NO 45 15,9 C 24,5 C
22.05.2012 21:16 24,4 C 59 % 1012,8 hPa 0,0 l/m 2,2 km/h (1 Bft) NO 45 15,9 C 24,4 C
22.05.2012 21:21 24,4 C 59 % 1013,0 hPa 0,0 l/m 3,6 km/h (1 Bft) N-NO 22 15,9 C 24,4 C
22.05.2012 21:26 24,3 C 59 % 1013,0 hPa 0,0 l/m 2,2 km/h (1 Bft) N-NO 22 15,8 C 24,3 C
22.05.2012 21:31 24,2 C 60 % 1013,2 hPa 0,0 l/m 6,1 km/h (2 Bft) NO 45 15,9 C 24,2 C
22.05.2012 21:36 24,1 C 60 % 1013,5 hPa 0,0 l/m 3,6 km/h (1 Bft) N 360 15,8 C 24,1 C
22.05.2012 21:41 23,9 C 61 % 1013,4 hPa 0,0 l/m 6,5 km/h (2 Bft) N-NO 22 15,9 C 23,9 C
22.05.2012 21:46 23,8 C 61 % 1013,5 hPa 0,0 l/m 9,0 km/h (2 Bft) N-NO 22 15,8 C 23,8 C
22.05.2012 21:51 23,8 C 61 % 1013,4 hPa 0,0 l/m 3,6 km/h (1 Bft) N-NO 22 15,8 C 23,8 C
22.05.2012 21:56 23,6 C 61 % 1013,5 hPa 0,0 l/m 6,5 km/h (2 Bft) O-NO 67 15,6 C 23,6 C
22.05.2012 22:01 23,6 C 62 % 1013,5 hPa 0,0 l/m 5,0 km/h (1 Bft) O-NO 67 15,9 C 23,6 C
22.05.2012 22:06 23,4 C 62 % 1013,6 hPa 0,0 l/m 6,1 km/h (2 Bft) NO 45 15,7 C 23,4 C
22.05.2012 22:11 23,3 C 62 % 1013,6 hPa 0,0 l/m 5,0 km/h (1 Bft) O-NO 67 15,6 C 23,3 C
22.05.2012 22:16 23,3 C 62 % 1013,5 hPa 0,0 l/m 4,0 km/h (1 Bft) O-SO 112 15,6 C 23,3 C
22.05.2012 22:21 23,1 C 62 % 1013,6 hPa 0,0 l/m 7,2 km/h (2 Bft) O-NO 67 15,4 C 23,1 C
22.05.2012 22:26 23,0 C 62 % 1013,5 hPa 0,0 l/m 2,2 km/h (1 Bft) O-NO 67 15,3 C 23,0 C
22.05.2012 22:31 22,9 C 63 % 1013,8 hPa 0,0 l/m 5,0 km/h (1 Bft) NO 45 15,5 C 22,9 C
22.05.2012 22:36 22,8 C 63 % 1013,9 hPa 0,0 l/m 6,1 km/h (2 Bft) N-NO 22 15,4 C 22,8 C
22.05.2012 22:41 22,6 C 64 % 1013,9 hPa 0,0 l/m 4,3 km/h (1 Bft) O 90 15,4 C 22,6 C
22.05.2012 22:46 22,5 C 64 % 1013,9 hPa 0,0 l/m 3,6 km/h (1 Bft) NO 45 15,3 C 22,5 C
22.05.2012 22:51 22,4 C 64 % 1013,9 hPa 0,0 l/m 3,6 km/h (1 Bft) NO 45 15,2 C 22,4 C
22.05.2012 22:56 22,3 C 65 % 1013,9 hPa 0,0 l/m 2,2 km/h (1 Bft) NO 45 15,4 C 22,3 C
22.05.2012 23:01 22,1 C 65 % 1013,9 hPa 0,0 l/m 7,6 km/h (2 Bft) NO 45 15,2 C 22,1 C
22.05.2012 23:06 22,0 C 65 % 1014,0 hPa 0,0 l/m 0,0 km/h (0 Bft) O-NO 67 15,1 C 22,0 C
22.05.2012 23:11 21,9 C 65 % 1014,1 hPa 0,0 l/m 3,2 km/h (1 Bft) N 360 15,0 C 21,9 C
22.05.2012 23:16 21,8 C 66 % 1014,2 hPa 0,0 l/m 2,9 km/h (1 Bft) NO 45 15,2 C 21,8 C
22.05.2012 23:21 21,8 C 67 % 1014,2 hPa 0,0 l/m 1,8 km/h (1 Bft) O-NO 67 15,4 C 21,8 C
22.05.2012 23:26 21,6 C 67 % 1014,4 hPa 0,0 l/m 2,9 km/h (1 Bft) NO 45 15,2 C 21,6 C
22.05.2012 23:31 21,5 C 67 % 1014,5 hPa 0,0 l/m 5,0 km/h (1 Bft) NO 45 15,1 C 21,5 C
22.05.2012 23:36 21,4 C 67 % 1014,6 hPa 0,0 l/m 6,5 km/h (2 Bft) NO 45 15,0 C 21,4 C
22.05.2012 23:41 21,3 C 67 % 1014,6 hPa 0,0 l/m 0,0 km/h (0 Bft) N-NW 337 14,9 C 21,3 C
22.05.2012 23:46 21,1 C 68 % 1014,6 hPa 0,0 l/m 2,9 km/h (1 Bft) N-NO 22 15,0 C 21,1 C
22.05.2012 23:51 20,9 C 68 % 1014,6 hPa 0,0 l/m 5,0 km/h (1 Bft) O-NO 67 14,8 C 20,9 C
22.05.2012 23:56 20,8 C 69 % 1014,6 hPa 0,0 l/m 3,2 km/h (1 Bft) O 90 14,9 C 20,8 C
_ Min-Zeit 05:56 14:41 00:01 - 00:21 - - 02:21 05:56
Minimum _ 17,6 C 33 % 1005,0 hPa - 0,0 km/h (0 Bft) - - 11,7 C 17,6 C
_ Max-Zeit 16:56 05:51 23:36 00:01 11:56 - - 21:06 16:56
Maximum _ 31,3 C 69 % 1014,6 hPa 0,0 l/m 21,2 km/h
SO (4 Bft)
- - 16,0 C 31,3 C
Durchschnitt _ 24,1 C 53 % 1009,1 hPa #0,0 l/m 5,8 km/h (2 Bft) O - 13,5 C 24,1 C
(c) by David Heller